EST,Max TemperatureF,Mean TemperatureF,Min TemperatureF,Max Dew PointF,MeanDew PointF,Min DewpointF,Max Humidity, Mean Humidity, Min Humidity, Max Sea Level PressureIn, Mean Sea Level PressureIn, Min Sea Level PressureIn, Max VisibilityMiles, Mean VisibilityMiles, Min VisibilityMiles, Max Wind SpeedMPH, Mean Wind SpeedMPH, Max Gust SpeedMPH,PrecipitationIn, CloudCover, Events, WindDirDegrees
2013-12-1,58,47,36,43,36,30,96,73,50,30.34,30.21,30.06,10,10,9,7,2,10,0.00,4,,111
2013-12-2,55,49,43,52,48,41,100,93,86,30.02,29.92,29.84,10,4,0,10,1,12,0.26,8,Fog-Rain,143
2013-12-3,60,53,45,59,54,45,100,97,93,29.92,29.87,29.84,6,3,0,7,2,10,0.53,8,Fog-Rain,135
2013-12-4,72,65,57,64,61,57,100,84,68,30.06,29.98,29.91,10,5,0,13,4,18,0.03,7,Fog-Rain,150
2013-12-5,75,70,65,68,66,65,100,87,74,30.11,30.05,29.99,10,7,2,12,4,19,0.07,7,Rain,159
2013-12-6,76,68,60,66,65,59,93,81,69,30.09,30.05,30.00,10,9,2,22,7,30,0.08,7,Rain,196
2013-12-7,60,52,44,59,46,39,100,86,71,30.32,30.22,30.09,10,9,2,17,9,22,0.09,8,Rain,324
2013-12-8,49,47,44,48,46,44,100,96,92,30.30,30.23,30.17,10,3,1,14,7,19,0.07,8,Rain,98
2013-12-9,50,47,44,49,47,43,100,96,92,30.18,30.12,30.04,10,5,0,14,4,18,0.31,8,Fog-Rain,56
2013-12-10,52,41,30,52,44,28,100,73,46,30.38,30.14,29.98,10,6,0,24,8,34,0.12,5,Fog-Rain,302
2013-12-11,57,41,25,39,30,23,100,65,29,30.46,30.40,30.35,10,10,7,8,2,11,0.00,0,,49
2013-12-12,49,38,27,30,22,11,92,57,21,30.49,30.43,30.38,10,10,10,16,8,20,0.00,0,,325
2013-12-13,57,40,22,37,26,16,100,61,21,30.41,30.31,30.19,10,10,10,8,1,9,0.00,0,,60
2013-12-14,59,50,41,58,52,36,100,88,76,30.18,29.92,29.83,10,6,1,16,4,21,0.65,7,Rain,160
2013-12-15,54,43,32,54,37,29,100,81,62,30.24,30.05,29.84,10,10,9,22,12,28,T,6,Rain,310
2013-12-16,56,42,27,37,29,25,100,65,30,30.31,30.26,30.22,10,8,3,12,3,15,0.00,0,,306
2013-12-17,62,45,27,35,31,26,100,65,30,30.28,30.21,30.14,10,10,10,14,4,19,0.00,0,,258
2013-12-18,56,43,29,36,25,11,92,54,16,30.37,30.31,30.22,10,10,9,15,5,20,0.00,0,,324
2013-12-19,64,45,25,34,27,20,100,60,19,30.36,30.29,30.22,10,10,10,9,1,13,0.00,0,,142
2013-12-20,58,45,31,50,41,30,100,86,71,30.26,30.20,30.14,10,9,5,7,1,7,T,5,Rain,128
2013-12-21,72,58,43,65,54,43,100,87,73,30.12,30.03,29.94,10,6,1,16,6,26,0.00,7,,152
2013-12-22,72,65,57,66,59,57,100,90,79,30.09,30.03,29.92,10,4,1,18,6,28,3.39,8,Rain-Thunderstorm,207
2013-12-23,57,47,37,57,46,30,100,88,76,30.30,30.18,30.07,10,10,4,20,9,27,0.14,7,Rain,313
2013-12-24,43,36,28,30,23,19,85,63,41,30.44,30.39,30.30,10,10,10,20,11,24,0.00,0,,327
2013-12-25,49,36,23,28,23,18,96,67,38,30.48,30.40,30.33,10,10,9,13,3,18,0.00,3,,73
2013-12-26,56,43,30,34,28,25,92,62,32,30.40,30.35,30.29,10,10,10,13,2,15,0.00,1,,350
2013-12-27,54,40,26,33,29,25,100,69,38,30.47,30.41,30.35,10,9,8,8,1,11,0.00,0,,61
2013-12-28,48,39,30,41,37,29,100,75,49,30.40,30.21,29.99,10,5,2,13,4,19,1.49,6,Rain,83
2013-12-29,51,45,39,46,43,39,100,89,77,30.09,29.98,29.88,10,9,2,14,5,17,0.18,6,Rain,301
2013-12-30,51,43,35,45,40,35,100,86,71,30.23,30.15,30.08,10,7,0,9,2,10,T,3,Fog-Rain,296
2013-12-31,47,40,32,43,34,24,96,69,42,30.42,30.33,30.22,10,9,6,14,6,18,0.00,3,,319